Time,TemperatureF,DewpointF,PressureIn,WindDirection,WindDirectionDegrees,WindSpeedMPH,WindSpeedGustMPH,Humidity,HourlyPrecipIn,Conditions,Clouds,dailyrainin,SoftwareType,DateUTC
2013-12-12 00:02:00,32.5,30.2,30.25,NNW,342,0.0,0.0,91,0.00,CLR,,0.00,WeatherDisplay:10.37,2013-12-12 08:02:00,
2013-12-12 00:07:00,32.6,30.3,30.24,NNW,343,0.0,0.0,91,0.00,CLR,,0.00,WeatherDisplay:10.37,2013-12-12 08:07:00,
2013-12-12 00:12:00,32.5,29.9,30.24,NNW,342,0.0,0.0,90,0.00,CLR,,0.00,WeatherDisplay:10.37,2013-12-12 08:12:00,
2013-12-12 00:17:00,32.4,29.8,30.24,NNW,343,0.0,0.0,90,0.00,CLR,,0.00,WeatherDisplay:10.37,2013-12-12 08:17:00,
2013-12-12 00:22:00,32.4,29.8,30.24,NNW,343,0.0,0.0,90,0.00,CLR,,0.00,WeatherDisplay:10.37,2013-12-12 08:22:00,
2013-12-12 00:27:00,32.3,29.7,30.24,NNW,343,0.0,0.0,90,0.00,CLR,,0.00,WeatherDisplay:10.37,2013-12-12 08:27:00,
2013-12-12 00:32:00,32.1,29.5,30.24,NNW,343,0.0,0.0,90,0.00,CLR,,0.00,WeatherDisplay:10.37,2013-12-12 08:32:00,
2013-12-12 00:37:00,31.9,29.3,30.24,NNW,343,0.0,0.0,90,0.00,CLR,,0.00,WeatherDisplay:10.37,2013-12-12 08:37:00,
2013-12-12 00:42:00,31.7,29.1,30.24,NNW,342,0.0,0.0,90,0.00,CLR,,0.00,WeatherDisplay:10.37,2013-12-12 08:42:00,
2013-12-12 00:47:00,31.7,29.4,30.24,NNW,343,0.0,0.0,91,0.00,CLR,,0.00,WeatherDisplay:10.37,2013-12-12 08:47:00,
2013-12-12 00:52:00,31.7,29.4,30.24,NNW,343,0.0,0.0,91,0.00,CLR,,0.00,WeatherDisplay:10.37,2013-12-12 08:52:00,
2013-12-12 00:57:00,31.6,29.3,30.24,NNW,343,0.0,0.0,91,0.00,CLR,,0.00,WeatherDisplay:10.37,2013-12-12 08:57:00,
2013-12-12 01:02:00,31.5,29.2,30.24,NNW,342,0.0,0.0,91,0.00,CLR,,0.00,WeatherDisplay:10.37,2013-12-12 09:02:00,
2013-12-12 01:07:00,31.3,29.0,30.24,NNW,343,0.0,0.0,91,0.00,CLR,,0.00,WeatherDisplay:10.37,2013-12-12 09:07:00,
2013-12-12 01:12:00,31.2,28.6,30.24,NNW,343,0.0,0.0,90,0.00,CLR,,0.00,WeatherDisplay:10.37,2013-12-12 09:12:00,
2013-12-12 01:17:00,31.1,28.8,30.24,NNW,343,0.0,0.0,91,0.00,CLR,,0.00,WeatherDisplay:10.37,2013-12-12 09:17:00,
2013-12-12 01:22:00,31.0,28.7,30.24,NNW,343,0.0,0.0,91,0.00,CLR,,0.00,WeatherDisplay:10.37,2013-12-12 09:22:00,
2013-12-12 01:27:00,30.9,28.6,30.24,NNW,343,0.0,0.0,91,0.00,CLR,,0.00,WeatherDisplay:10.37,2013-12-12 09:27:00,
2013-12-12 01:32:00,30.8,28.5,30.24,NNW,343,0.0,0.0,91,0.00,CLR,,0.00,WeatherDisplay:10.37,2013-12-12 09:32:00,
2013-12-12 01:37:00,30.6,28.3,30.24,NNW,343,0.0,0.0,91,0.00,CLR,,0.00,WeatherDisplay:10.37,2013-12-12 09:37:00,
2013-12-12 01:42:00,30.4,28.1,30.24,NNW,343,0.0,0.0,91,0.00,CLR,,0.00,WeatherDisplay:10.37,2013-12-12 09:42:00,
2013-12-12 01:47:00,30.5,28.5,30.24,NNW,343,0.0,0.0,92,0.00,CLR,,0.00,WeatherDisplay:10.37,2013-12-12 09:47:00,
2013-12-12 01:52:00,30.6,28.3,30.24,NNW,342,0.0,0.0,91,0.00,CLR,,0.00,WeatherDisplay:10.37,2013-12-12 09:52:00,
2013-12-12 01:57:00,30.5,28.2,30.24,NNW,343,0.0,0.0,91,0.00,CLR,,0.00,WeatherDisplay:10.37,2013-12-12 09:57:00,
2013-12-12 02:02:00,30.6,28.6,30.24,NNW,343,0.0,0.0,92,0.00,CLR,,0.00,WeatherDisplay:10.37,2013-12-12 10:02:00,
2013-12-12 02:07:00,30.7,28.7,30.23,NNW,343,0.0,0.0,92,0.00,CLR,,0.00,WeatherDisplay:10.37,2013-12-12 10:07:00,
2013-12-12 02:12:00,30.9,28.9,30.23,NNW,342,0.0,0.0,92,0.00,CLR,,0.00,WeatherDisplay:10.37,2013-12-12 10:12:00,
2013-12-12 02:17:00,30.8,28.5,30.23,NNW,343,0.0,0.0,91,0.00,CLR,,0.00,WeatherDisplay:10.37,2013-12-12 10:17:00,
2013-12-12 02:22:00,30.5,28.2,30.24,NNW,343,0.0,0.0,91,0.00,CLR,,0.00,WeatherDisplay:10.37,2013-12-12 10:22:00,
2013-12-12 02:27:00,30.4,28.4,30.24,NNW,343,0.0,0.0,92,0.00,CLR,,0.00,WeatherDisplay:10.37,2013-12-12 10:27:00,
2013-12-12 02:32:00,30.4,28.1,30.23,NNW,343,0.0,0.0,91,0.00,CLR,,0.00,WeatherDisplay:10.37,2013-12-12 10:32:00,
2013-12-12 02:37:00,30.3,28.3,30.23,NNW,342,0.0,0.0,92,0.00,CLR,,0.00,WeatherDisplay:10.37,2013-12-12 10:37:00,
2013-12-12 02:42:00,30.2,28.2,30.24,NNW,343,0.0,0.0,92,0.00,CLR,,0.00,WeatherDisplay:10.37,2013-12-12 10:42:00,
2013-12-12 02:47:00,30.1,28.1,30.24,NNW,342,0.0,0.0,92,0.00,CLR,,0.00,WeatherDisplay:10.37,2013-12-12 10:47:00,
2013-12-12 02:52:00,30.1,28.1,30.24,NNW,343,0.0,0.0,92,0.00,CLR,,0.00,WeatherDisplay:10.37,2013-12-12 10:52:00,
2013-12-12 02:57:00,29.9,27.6,30.23,NNW,342,0.0,0.0,91,0.00,CLR,,0.00,WeatherDisplay:10.37,2013-12-12 10:57:00,
2013-12-12 03:02:00,29.8,27.8,30.23,NNW,343,0.0,0.0,92,0.00,CLR,,0.00,WeatherDisplay:10.37,2013-12-12 11:02:00,
2013-12-12 03:07:00,29.9,27.9,30.23,NNW,343,0.0,0.0,92,0.00,CLR,,0.00,WeatherDisplay:10.37,2013-12-12 11:07:00,
2013-12-12 03:12:00,29.8,27.8,30.23,NNW,343,0.0,0.0,92,0.00,CLR,,0.00,WeatherDisplay:10.37,2013-12-12 11:12:00,
2013-12-12 03:17:00,29.8,27.8,30.23,NNW,343,0.0,0.0,92,0.00,CLR,,0.00,WeatherDisplay:10.37,2013-12-12 11:17:00,
2013-12-12 03:22:00,30.0,28.0,30.23,NNW,342,0.0,0.0,92,0.00,CLR,,0.00,WeatherDisplay:10.37,2013-12-12 11:22:00,
2013-12-12 03:27:00,30.1,28.1,30.23,NNW,343,0.0,0.0,92,0.00,CLR,,0.00,WeatherDisplay:10.37,2013-12-12 11:27:00,
2013-12-12 03:32:00,30.0,28.0,30.23,NNW,343,0.0,0.0,92,0.00,CLR,,0.00,WeatherDisplay:10.37,2013-12-12 11:32:00,
2013-12-12 03:37:00,29.9,27.9,30.23,NNW,343,0.0,0.0,92,0.00,CLR,,0.00,WeatherDisplay:10.37,2013-12-12 11:37:00,
2013-12-12 03:42:00,29.8,27.8,30.23,NNW,343,0.0,0.0,92,0.00,CLR,,0.00,WeatherDisplay:10.37,2013-12-12 11:42:00,
2013-12-12 03:47:00,29.6,27.3,30.23,NNW,342,0.0,0.0,91,0.00,CLR,,0.00,WeatherDisplay:10.37,2013-12-12 11:47:00,
2013-12-12 03:52:00,29.4,27.4,30.23,NNW,343,0.0,0.0,92,0.00,CLR,,0.00,WeatherDisplay:10.37,2013-12-12 11:52:00,
2013-12-12 03:57:00,29.4,27.4,30.23,NNW,342,0.0,0.0,92,0.00,CLR,,0.00,WeatherDisplay:10.37,2013-12-12 11:57:00,
2013-12-12 04:02:00,29.4,27.4,30.23,NNW,342,0.0,0.0,92,0.00,CLR,,0.00,WeatherDisplay:10.37,2013-12-12 12:02:00,
2013-12-12 04:07:00,29.5,27.5,30.22,NNW,343,0.0,0.0,92,0.00,CLR,,0.00,WeatherDisplay:10.37,2013-12-12 12:07:00,
2013-12-12 04:12:00,29.6,27.6,30.22,NNW,342,0.0,0.0,92,0.00,CLR,,0.00,WeatherDisplay:10.37,2013-12-12 12:12:00,
2013-12-12 04:17:00,29.6,27.6,30.22,NNW,343,0.0,0.0,92,0.00,CLR,,0.00,WeatherDisplay:10.37,2013-12-12 12:17:00,
2013-12-12 04:22:00,29.6,27.6,30.22,NNW,343,0.0,0.0,92,0.00,CLR,,0.00,WeatherDisplay:10.37,2013-12-12 12:22:00,
2013-12-12 04:27:00,29.4,27.4,30.22,NNW,343,0.0,0.0,92,0.00,CLR,,0.00,WeatherDisplay:10.37,2013-12-12 12:27:00,
2013-12-12 04:32:00,29.3,27.3,30.22,NNW,343,0.0,0.0,92,0.00,CLR,,0.00,WeatherDisplay:10.37,2013-12-12 12:32:00,
2013-12-12 04:37:00,29.3,27.3,30.23,NNW,342,0.0,0.0,92,0.00,CLR,,0.00,WeatherDisplay:10.37,2013-12-12 12:37:00,
2013-12-12 04:42:00,29.1,27.1,30.22,NNW,342,0.0,0.0,92,0.00,CLR,,0.00,WeatherDisplay:10.37,2013-12-12 12:42:00,
2013-12-12 04:47:00,29.2,27.2,30.22,NNW,343,0.0,0.0,92,0.00,CLR,,0.00,WeatherDisplay:10.37,2013-12-12 12:47:00,
2013-12-12 04:52:00,29.0,27.0,30.22,NNW,343,0.0,0.0,92,0.00,CLR,,0.00,WeatherDisplay:10.37,2013-12-12 12:52:00,
2013-12-12 04:57:00,28.9,26.9,30.22,NNW,342,0.0,0.0,92,0.00,CLR,,0.00,WeatherDisplay:10.37,2013-12-12 12:57:00,
2013-12-12 05:02:00,28.8,26.8,30.21,NNW,343,0.0,0.0,92,0.00,CLR,,0.00,WeatherDisplay:10.37,2013-12-12 13:02:00,
2013-12-12 05:07:00,28.8,27.0,30.22,NNW,343,0.0,0.0,93,0.00,CLR,,0.00,WeatherDisplay:10.37,2013-12-12 13:07:00,
2013-12-12 05:12:00,28.9,27.1,30.22,NNW,343,0.0,0.0,93,0.00,CLR,,0.00,WeatherDisplay:10.37,2013-12-12 13:12:00,
2013-12-12 05:17:00,28.8,26.8,30.22,NNW,343,0.0,0.0,92,0.00,CLR,,0.00,WeatherDisplay:10.37,2013-12-12 13:17:00,
2013-12-12 05:22:00,28.7,26.7,30.22,NNW,343,0.0,0.0,92,0.00,CLR,,0.00,WeatherDisplay:10.37,2013-12-12 13:22:00,
2013-12-12 05:27:00,29.0,27.2,30.21,NNW,343,0.0,0.0,93,0.00,CLR,,0.00,WeatherDisplay:10.37,2013-12-12 13:27:00,
2013-12-12 05:32:00,29.1,27.3,30.22,NNW,343,0.0,0.0,93,0.00,CLR,,0.00,WeatherDisplay:10.37,2013-12-12 13:32:00,
2013-12-12 05:37:00,28.9,26.9,30.22,NNW,343,0.0,0.0,92,0.00,CLR,,0.00,WeatherDisplay:10.37,2013-12-12 13:37:00,
2013-12-12 05:42:00,28.7,26.7,30.22,NNW,343,0.0,0.0,92,0.00,CLR,,0.00,WeatherDisplay:10.37,2013-12-12 13:42:00,
2013-12-12 05:47:00,28.7,26.9,30.22,NNW,343,0.0,0.0,93,0.00,CLR,,0.00,WeatherDisplay:10.37,2013-12-12 13:47:00,
2013-12-12 05:52:00,28.6,26.8,30.23,NNW,342,0.0,0.0,93,0.00,CLR,,0.00,WeatherDisplay:10.37,2013-12-12 13:52:00,
2013-12-12 05:57:00,28.8,27.0,30.23,NNW,342,0.0,0.0,93,0.00,CLR,,0.00,WeatherDisplay:10.37,2013-12-12 13:57:00,
2013-12-12 06:02:00,28.8,27.0,30.23,NNW,343,0.0,0.0,93,0.00,CLR,,0.00,WeatherDisplay:10.37,2013-12-12 14:02:00,
2013-12-12 06:07:00,28.7,26.9,30.23,NNW,343,0.0,0.0,93,0.00,CLR,,0.00,WeatherDisplay:10.37,2013-12-12 14:07:00,
2013-12-12 06:12:00,28.6,26.8,30.24,NNW,343,0.0,0.0,93,0.00,CLR,,0.00,WeatherDisplay:10.37,2013-12-12 14:12:00,
2013-12-12 06:17:00,28.4,26.6,30.24,NNW,343,0.0,0.0,93,0.00,CLR,,0.00,WeatherDisplay:10.37,2013-12-12 14:17:00,
2013-12-12 06:22:00,28.3,26.5,30.24,NNW,343,0.0,0.0,93,0.00,CLR,,0.00,WeatherDisplay:10.37,2013-12-12 14:22:00,
2013-12-12 06:27:00,28.1,26.1,30.24,NNW,342,0.0,0.0,92,0.00,CLR,,0.00,WeatherDisplay:10.37,2013-12-12 14:27:00,
2013-12-12 06:32:00,28.2,26.4,30.24,NNW,343,0.0,0.0,93,0.00,CLR,,0.00,WeatherDisplay:10.37,2013-12-12 14:32:00,
2013-12-12 06:37:00,28.3,26.5,30.24,NNW,342,0.0,0.0,93,0.00,CLR,,0.00,WeatherDisplay:10.37,2013-12-12 14:37:00,
2013-12-12 06:42:00,28.6,26.8,30.24,NNW,343,0.0,0.0,93,0.00,CLR,,0.00,WeatherDisplay:10.37,2013-12-12 14:42:00,
2013-12-12 06:47:00,28.8,27.0,30.25,NNW,343,0.0,0.0,93,0.00,CLR,,0.00,WeatherDisplay:10.37,2013-12-12 14:47:00,
2013-12-12 06:52:00,28.7,26.9,30.25,NNW,343,0.0,0.0,93,0.00,CLR,,0.00,WeatherDisplay:10.37,2013-12-12 14:52:00,
2013-12-12 06:57:00,28.5,26.7,30.26,NNW,343,0.0,0.0,93,0.00,CLR,,0.00,WeatherDisplay:10.37,2013-12-12 14:57:00,
2013-12-12 07:02:00,28.3,26.5,30.26,NNW,343,0.0,0.0,93,0.00,CLR,,0.00,WeatherDisplay:10.37,2013-12-12 15:02:00,
2013-12-12 07:07:00,28.2,26.4,30.26,NNW,343,0.0,0.0,93,0.00,CLR,,0.00,WeatherDisplay:10.37,2013-12-12 15:07:00,
2013-12-12 07:12:00,28.1,26.3,30.26,NNW,343,0.0,0.0,93,0.00,CLR,,0.00,WeatherDisplay:10.37,2013-12-12 15:12:00,
2013-12-12 07:17:00,28.0,26.2,30.26,NNW,343,0.0,0.0,93,0.00,CLR,,0.00,WeatherDisplay:10.37,2013-12-12 15:17:00,
2013-12-12 07:22:00,28.1,26.3,30.26,NNW,343,0.0,0.0,93,0.00,CLR,,0.00,WeatherDisplay:10.37,2013-12-12 15:22:00,
2013-12-12 07:27:00,28.1,26.3,30.26,NNW,342,0.0,0.0,93,0.00,CLR,,0.00,WeatherDisplay:10.37,2013-12-12 15:27:00,
2013-12-12 07:32:00,28.3,26.5,30.26,NNW,343,0.0,0.0,93,0.00,CLR,,0.00,WeatherDisplay:10.37,2013-12-12 15:32:00,
2013-12-12 07:37:00,28.6,27.1,30.26,NNW,343,0.0,0.0,94,0.00,CLR,,0.00,WeatherDisplay:10.37,2013-12-12 15:37:00,
2013-12-12 07:42:00,28.8,27.3,30.26,NNW,343,0.0,0.0,94,0.00,CLR,,0.00,WeatherDisplay:10.37,2013-12-12 15:42:00,
2013-12-12 07:47:00,29.1,27.6,30.26,NNW,343,0.0,0.0,94,0.00,CLR,,0.00,WeatherDisplay:10.37,2013-12-12 15:47:00,
2013-12-12 07:52:00,29.6,28.1,30.26,NNW,343,0.0,0.0,94,0.00,CLR,,0.00,WeatherDisplay:10.37,2013-12-12 15:52:00,
2013-12-12 07:57:00,30.1,28.6,30.26,NNW,343,0.0,0.0,94,0.00,CLR,,0.00,WeatherDisplay:10.37,2013-12-12 15:57:00,
2013-12-12 08:02:00,30.7,29.2,30.26,NNW,342,0.0,0.0,94,0.00,CLR,,0.00,WeatherDisplay:10.37,2013-12-12 16:02:00,
2013-12-12 08:07:00,31.5,30.2,30.26,NNW,343,0.0,0.0,95,0.00,CLR,,0.00,WeatherDisplay:10.37,2013-12-12 16:07:00,
2013-12-12 08:12:00,32.4,31.1,30.27,NNW,343,0.0,0.0,95,0.00,CLR,,0.00,WeatherDisplay:10.37,2013-12-12 16:12:00,
2013-12-12 08:17:00,33.2,31.7,30.27,NNW,343,0.0,0.0,94,0.00,CLR,,0.00,WeatherDisplay:10.37,2013-12-12 16:17:00,
2013-12-12 08:22:00,33.9,31.8,30.27,NNW,343,0.0,0.0,92,0.00,CLR,,0.00,WeatherDisplay:10.37,2013-12-12 16:22:00,
2013-12-12 08:27:00,34.7,32.1,30.27,NNW,342,0.0,0.0,90,0.00,CLR,,0.00,WeatherDisplay:10.37,2013-12-12 16:27:00,
2013-12-12 08:32:00,35.2,32.3,30.27,NNW,343,0.0,0.0,89,0.00,CLR,,0.00,WeatherDisplay:10.37,2013-12-12 16:32:00,
2013-12-12 08:37:00,35.6,32.1,30.27,NNW,343,0.0,0.0,87,0.00,CLR,,0.00,WeatherDisplay:10.37,2013-12-12 16:37:00,
2013-12-12 08:42:00,35.9,32.4,30.27,NNW,343,0.0,0.0,87,0.00,CLR,,0.00,WeatherDisplay:10.37,2013-12-12 16:42:00,
2013-12-12 08:47:00,36.1,32.6,30.27,NNW,343,0.0,0.0,87,0.00,CLR,,0.00,WeatherDisplay:10.37,2013-12-12 16:47:00,
2013-12-12 08:52:00,36.4,32.9,30.27,NNW,343,0.0,0.0,87,0.00,CLR,,0.00,WeatherDisplay:10.37,2013-12-12 16:52:00,
2013-12-12 08:57:00,37.3,32.9,30.27,SW,218,0.0,0.0,84,0.00,CLR,,0.00,WeatherDisplay:10.37,2013-12-12 16:57:00,
2013-12-12 09:02:00,38.7,33.4,30.27,SW,221,1.2,1.2,81,0.00,CLR,,0.00,WeatherDisplay:10.37,2013-12-12 17:02:00,
2013-12-12 09:07:00,39.6,33.6,30.27,WSW,250,1.2,1.2,79,0.00,CLR,,0.00,WeatherDisplay:10.37,2013-12-12 17:07:00,
2013-12-12 09:12:00,40.3,33.7,30.27,SW,232,0.0,0.0,77,0.00,CLR,,0.00,WeatherDisplay:10.37,2013-12-12 17:12:00,
2013-12-12 09:17:00,40.6,33.6,30.27,SW,232,0.0,0.1,76,0.00,CLR,,0.00,WeatherDisplay:10.37,2013-12-12 17:17:00,
2013-12-12 09:22:00,41.1,34.1,30.27,SW,232,0.0,0.0,76,0.00,CLR,,0.00,WeatherDisplay:10.37,2013-12-12 17:22:00,
2013-12-12 09:27:00,41.5,33.8,30.27,SW,232,1.2,0.0,74,0.00,CLR,,0.00,WeatherDisplay:10.37,2013-12-12 17:27:00,
2013-12-12 09:32:00,41.8,33.8,30.27,SW,232,0.0,0.0,73,0.00,CLR,,0.00,WeatherDisplay:10.37,2013-12-12 17:32:00,
2013-12-12 09:37:00,42.0,34.0,30.28,SW,232,0.0,0.0,73,0.00,CLR,,0.00,WeatherDisplay:10.37,2013-12-12 17:37:00,
2013-12-12 09:42:00,42.4,34.4,30.28,North,350,1.2,0.0,73,0.00,CLR,,0.00,WeatherDisplay:10.37,2013-12-12 17:42:00,
2013-12-12 09:47:00,42.8,34.4,30.28,North,354,1.2,0.0,72,0.00,CLR,,0.00,WeatherDisplay:10.37,2013-12-12 17:47:00,
2013-12-12 09:52:00,43.2,34.4,30.28,SW,232,0.0,0.0,71,0.00,CLR,,0.00,WeatherDisplay:10.37,2013-12-12 17:52:00,
2013-12-12 09:57:00,43.6,34.5,30.28,SW,232,0.0,0.1,70,0.00,CLR,,0.00,WeatherDisplay:10.37,2013-12-12 17:57:00,
2013-12-12 10:02:00,44.0,34.5,30.28,SW,221,0.0,0.3,69,0.00,CLR,,0.00,WeatherDisplay:10.37,2013-12-12 18:02:00,
2013-12-12 10:07:00,44.5,34.6,30.28,SW,221,0.0,0.0,68,0.00,CLR,,0.00,WeatherDisplay:10.37,2013-12-12 18:07:00,
2013-12-12 10:12:00,44.9,34.6,30.28,WSW,238,0.0,0.0,67,0.00,CLR,,0.00,WeatherDisplay:10.37,2013-12-12 18:12:00,
2013-12-12 10:17:00,45.4,35.1,30.28,WSW,238,0.0,0.1,67,0.00,CLR,,0.00,WeatherDisplay:10.37,2013-12-12 18:17:00,
2013-12-12 10:22:00,46.0,34.9,30.27,WSW,238,1.2,0.0,65,0.00,CLR,,0.00,WeatherDisplay:10.37,2013-12-12 18:22:00,
2013-12-12 10:27:00,46.4,35.3,30.27,SW,229,0.0,0.0,65,0.00,CLR,,0.00,WeatherDisplay:10.37,2013-12-12 18:27:00,
2013-12-12 10:32:00,47.0,35.0,30.27,WSW,238,1.2,1.2,63,0.00,CLR,,0.00,WeatherDisplay:10.37,2013-12-12 18:32:00,
2013-12-12 10:37:00,47.5,35.1,30.27,SSW,203,1.2,1.2,62,0.00,CLR,,0.00,WeatherDisplay:10.37,2013-12-12 18:37:00,
2013-12-12 10:42:00,47.9,34.7,30.28,SW,222,1.2,1.2,60,0.00,CLR,,0.00,WeatherDisplay:10.37,2013-12-12 18:42:00,
2013-12-12 10:47:00,48.0,35.2,30.27,SW,229,0.0,0.1,61,0.00,CLR,,0.00,WeatherDisplay:10.37,2013-12-12 18:47:00,
2013-12-12 10:52:00,48.3,35.9,30.27,SW,222,1.2,0.0,62,0.00,CLR,,0.00,WeatherDisplay:10.37,2013-12-12 18:52:00,
2013-12-12 10:57:00,48.7,35.4,30.27,SSW,212,1.2,1.2,60,0.00,CLR,,0.00,WeatherDisplay:10.37,2013-12-12 18:57:00,
2013-12-12 11:02:00,48.9,35.6,30.27,SW,236,1.2,0.0,60,0.00,CLR,,0.00,WeatherDisplay:10.37,2013-12-12 19:02:00,
2013-12-12 11:07:00,49.2,35.0,30.26,SW,229,1.2,1.2,58,0.00,CLR,,0.00,WeatherDisplay:10.37,2013-12-12 19:07:00,
2013-12-12 11:12:00,49.6,35.8,30.26,SW,221,1.2,1.2,59,0.00,CLR,,0.00,WeatherDisplay:10.37,2013-12-12 19:12:00,
2013-12-12 11:17:00,50.1,36.7,30.26,West,267,1.0,0.0,60,0.00,CLR,,0.00,WeatherDisplay:10.37,2013-12-12 19:17:00,
2013-12-12 11:22:00,50.7,36.9,30.26,WSW,240,1.2,0.0,59,0.00,CLR,,0.00,WeatherDisplay:10.37,2013-12-12 19:22:00,
2013-12-12 11:27:00,51.0,37.2,30.26,South,183,2.3,2.3,59,0.00,CLR,,0.00,WeatherDisplay:10.37,2013-12-12 19:27:00,
2013-12-12 11:32:00,51.4,37.1,30.25,NNW,343,2.3,2.3,58,0.00,CLR,,0.00,WeatherDisplay:10.37,2013-12-12 19:32:00,
2013-12-12 11:37:00,51.8,37.0,30.25,WNW,283,0.0,0.3,57,0.00,CLR,,0.00,WeatherDisplay:10.37,2013-12-12 19:37:00,
2013-12-12 11:42:00,52.1,36.9,30.25,SSE,162,1.0,1.0,56,0.00,CLR,,0.00,WeatherDisplay:10.37,2013-12-12 19:42:00,
2013-12-12 11:47:00,52.4,37.2,30.25,SW,218,2.3,2.3,56,0.00,CLR,,0.00,WeatherDisplay:10.37,2013-12-12 19:47:00,
2013-12-12 11:52:00,52.7,37.0,30.24,West,271,1.2,1.2,55,0.00,CLR,,0.00,WeatherDisplay:10.37,2013-12-12 19:52:00,
2013-12-12 11:57:00,53.0,36.8,30.24,NW,315,3.5,3.5,54,0.00,CLR,,0.00,WeatherDisplay:10.37,2013-12-12 19:57:00,
2013-12-12 12:02:00,53.1,35.9,30.24,NNW,330,2.3,2.3,52,0.00,CLR,,0.00,WeatherDisplay:10.37,2013-12-12 20:02:00,
2013-12-12 12:07:00,53.4,36.7,30.23,West,281,1.2,1.2,53,0.00,CLR,,0.00,WeatherDisplay:10.37,2013-12-12 20:07:00,
2013-12-12 12:12:00,54.0,36.8,30.23,NNW,343,1.2,1.2,52,0.00,CLR,,0.00,WeatherDisplay:10.37,2013-12-12 20:12:00,
2013-12-12 12:17:00,54.4,36.6,30.23,WSW,249,2.3,2.3,51,0.00,CLR,,0.00,WeatherDisplay:10.37,2013-12-12 20:17:00,
2013-12-12 12:22:00,54.9,37.1,30.22,SW,233,0.0,0.1,51,0.00,CLR,,0.00,WeatherDisplay:10.37,2013-12-12 20:22:00,
2013-12-12 12:27:00,55.3,38.0,30.22,WSW,246,1.2,0.0,52,0.00,CLR,,0.00,WeatherDisplay:10.37,2013-12-12 20:27:00,
2013-12-12 12:32:00,55.8,37.9,30.22,NNW,328,1.2,1.2,51,0.00,CLR,,0.00,WeatherDisplay:10.37,2013-12-12 20:32:00,
2013-12-12 12:37:00,55.9,36.5,30.21,West,273,2.3,2.3,48,0.00,CLR,,0.00,WeatherDisplay:10.37,2013-12-12 20:37:00,
2013-12-12 12:42:00,56.2,36.8,30.21,NW,325,1.2,1.2,48,0.00,CLR,,0.00,WeatherDisplay:10.37,2013-12-12 20:42:00,
2013-12-12 12:47:00,56.5,36.5,30.21,North,354,2.3,2.3,47,0.00,CLR,,0.00,WeatherDisplay:10.37,2013-12-12 20:47:00,
2013-12-12 12:52:00,56.9,36.3,30.21,WNW,285,2.3,2.3,46,0.00,CLR,,0.00,WeatherDisplay:10.37,2013-12-12 20:52:00,
2013-12-12 12:57:00,57.3,37.2,30.21,WSW,246,1.2,1.2,47,0.00,CLR,,0.00,WeatherDisplay:10.37,2013-12-12 20:57:00,
2013-12-12 13:02:00,57.5,36.3,30.21,SSW,194,1.2,1.2,45,0.00,CLR,,0.00,WeatherDisplay:10.37,2013-12-12 21:02:00,
2013-12-12 13:07:00,57.7,35.3,30.20,SW,215,1.2,1.2,43,0.00,CLR,,0.00,WeatherDisplay:10.37,2013-12-12 21:07:00,
2013-12-12 13:12:00,57.9,35.5,30.20,NNW,328,1.2,1.2,43,0.00,CLR,,0.00,WeatherDisplay:10.37,2013-12-12 21:12:00,
2013-12-12 13:17:00,58.2,35.2,30.20,NW,307,0.0,0.0,42,0.00,CLR,,0.00,WeatherDisplay:10.37,2013-12-12 21:17:00,
2013-12-12 13:22:00,58.4,34.8,30.19,WSW,246,1.2,1.2,41,0.00,CLR,,0.00,WeatherDisplay:10.37,2013-12-12 21:22:00,
2013-12-12 13:25:00,58.3,35.9,30.20,WSW,246,0.0,0.0,43,0.00,CLR,,0.00,WeatherDisplay:10.37,2013-12-12 21:25:00,
2013-12-12 13:30:00,58.5,36.1,30.19,SW,215,0.0,0.0,43,0.00,CLR,,0.00,WeatherDisplay:10.37,2013-12-12 21:30:00,
2013-12-12 13:35:00,59.0,35.3,30.19,NNE,12,1.2,1.2,41,0.00,CLR,,0.00,WeatherDisplay:10.37,2013-12-12 21:35:00,
2013-12-12 13:40:00,59.2,34.9,30.19,NNW,330,1.2,0.0,40,0.00,CLR,,0.00,WeatherDisplay:10.37,2013-12-12 21:40:00,
2013-12-12 13:45:00,59.3,35.0,30.19,North,6,1.2,1.2,40,0.00,CLR,,0.00,WeatherDisplay:10.37,2013-12-12 21:45:00,
2013-12-12 13:50:00,59.8,34.8,30.19,NW,310,1.2,1.2,39,0.00,CLR,,0.00,WeatherDisplay:10.37,2013-12-12 21:50:00,
2013-12-12 13:55:00,60.1,35.0,30.19,SW,215,1.2,1.2,39,0.00,CLR,,0.00,WeatherDisplay:10.37,2013-12-12 21:55:00,
2013-12-12 14:00:00,60.5,34.7,30.19,North,356,1.2,1.2,38,0.00,CLR,,0.00,WeatherDisplay:10.37,2013-12-12 22:00:00,
2013-12-12 14:05:00,60.5,35.4,30.18,NNW,333,2.3,2.3,39,0.00,CLR,,0.00,WeatherDisplay:10.37,2013-12-12 22:05:00,
2013-12-12 14:10:00,60.5,35.4,30.18,NW,311,3.5,3.5,39,0.00,CLR,,0.00,WeatherDisplay:10.37,2013-12-12 22:10:00,
2013-12-12 14:15:00,60.2,34.5,30.18,NNW,328,1.2,1.2,38,0.00,CLR,,0.00,WeatherDisplay:10.37,2013-12-12 22:15:00,
2013-12-12 14:20:00,60.2,35.1,30.18,North,350,2.3,0.0,39,0.00,CLR,,0.00,WeatherDisplay:10.37,2013-12-12 22:20:00,
2013-12-12 14:25:00,60.3,33.9,30.18,WSW,246,2.3,0.0,37,0.00,CLR,,0.00,WeatherDisplay:10.37,2013-12-12 22:25:00,
2013-12-12 14:30:00,60.7,34.9,30.18,NW,313,2.3,2.3,38,0.00,CLR,,0.00,WeatherDisplay:10.37,2013-12-12 22:30:00,
2013-12-12 14:35:00,60.7,34.9,30.18,West,277,1.2,1.2,38,0.00,CLR,,0.00,WeatherDisplay:10.37,2013-12-12 22:35:00,
2013-12-12 14:40:00,61.1,35.9,30.18,North,352,1.2,0.0,39,0.00,CLR,,0.00,WeatherDisplay:10.37,2013-12-12 22:40:00,
2013-12-12 14:45:00,61.4,35.5,30.18,North,359,2.3,2.3,38,0.00,CLR,,0.00,WeatherDisplay:10.37,2013-12-12 22:45:00,
2013-12-12 14:50:00,61.2,35.4,30.18,NW,325,1.2,1.2,38,0.00,CLR,,0.00,WeatherDisplay:10.37,2013-12-12 22:50:00,
2013-12-12 14:55:00,61.3,35.5,30.18,WNW,301,2.3,2.3,38,0.00,CLR,,0.00,WeatherDisplay:10.37,2013-12-12 22:55:00,
2013-12-12 15:00:00,61.1,35.3,30.18,SE,131,2.3,2.3,38,0.00,CLR,,0.00,WeatherDisplay:10.37,2013-12-12 23:00:00,
2013-12-12 15:05:00,60.7,35.6,30.18,NNE,22,3.0,3.0,39,0.00,CLR,,0.00,WeatherDisplay:10.37,2013-12-12 23:05:00,
2013-12-12 15:10:00,60.1,36.3,30.18,NW,314,2.3,2.3,41,0.00,CLR,,0.00,WeatherDisplay:10.37,2013-12-12 23:10:00,
2013-12-12 15:15:00,60.0,36.2,30.18,NNW,335,0.0,0.0,41,0.00,CLR,,0.00,WeatherDisplay:10.37,2013-12-12 23:15:00,
2013-12-12 15:20:00,59.3,35.6,30.19,West,274,0.0,0.1,41,0.00,CLR,,0.00,WeatherDisplay:10.37,2013-12-12 23:20:00,
2013-12-12 15:25:00,59.0,35.9,30.19,West,277,1.2,1.2,42,0.00,CLR,,0.00,WeatherDisplay:10.37,2013-12-12 23:25:00,
2013-12-12 15:30:00,58.7,35.7,30.19,West,275,0.0,0.0,42,0.00,CLR,,0.00,WeatherDisplay:10.37,2013-12-12 23:30:00,
2013-12-12 15:35:00,58.3,35.3,30.19,West,260,1.2,0.0,42,0.00,CLR,,0.00,WeatherDisplay:10.37,2013-12-12 23:35:00,
2013-12-12 15:40:00,58.0,35.6,30.18,WSW,257,1.2,0.0,43,0.00,CLR,,0.00,WeatherDisplay:10.37,2013-12-12 23:40:00,
2013-12-12 15:45:00,57.7,35.9,30.18,West,273,0.0,0.0,44,0.00,CLR,,0.00,WeatherDisplay:10.37,2013-12-12 23:45:00,
2013-12-12 15:50:00,57.3,35.6,30.19,West,273,0.0,0.0,44,0.00,CLR,,0.00,WeatherDisplay:10.37,2013-12-12 23:50:00,
2013-12-12 15:55:00,57.0,35.3,30.19,West,262,0.0,0.0,44,0.00,CLR,,0.00,WeatherDisplay:10.37,2013-12-12 23:55:00,
2013-12-12 16:01:00,56.6,34.9,30.19,West,262,0.0,0.0,44,0.00,CLR,,0.00,WeatherDisplay:10.37,2013-12-13 00:01:00,
2013-12-12 16:06:00,56.3,35.2,30.19,West,262,0.0,0.0,45,0.00,CLR,,0.00,WeatherDisplay:10.37,2013-12-13 00:06:00,
2013-12-12 16:11:00,56.0,34.9,30.19,West,262,0.0,0.0,45,0.00,CLR,,0.00,WeatherDisplay:10.37,2013-12-13 00:11:00,
2013-12-12 16:16:00,55.7,35.2,30.19,West,262,0.0,0.0,46,0.00,CLR,,0.00,WeatherDisplay:10.37,2013-12-13 00:16:00,
2013-12-12 16:21:00,55.3,35.4,30.19,West,262,0.0,0.0,47,0.00,CLR,,0.00,WeatherDisplay:10.37,2013-12-13 00:21:00,
2013-12-12 16:26:00,54.9,35.6,30.19,West,262,0.0,0.0,48,0.00,CLR,,0.00,WeatherDisplay:10.37,2013-12-13 00:26:00,
2013-12-12 16:31:00,54.6,35.3,30.19,West,262,0.0,0.0,48,0.00,CLR,,0.00,WeatherDisplay:10.37,2013-12-13 00:31:00,
2013-12-12 16:36:00,54.1,35.3,30.19,West,262,0.0,0.0,49,0.00,CLR,,0.00,WeatherDisplay:10.37,2013-12-13 00:36:00,
2013-12-12 16:41:00,53.5,35.8,30.19,West,262,0.0,0.0,51,0.00,CLR,,0.00,WeatherDisplay:10.37,2013-12-13 00:41:00,
2013-12-12 16:46:00,52.8,36.1,30.18,West,262,0.0,0.0,53,0.00,CLR,,0.00,WeatherDisplay:10.37,2013-12-13 00:46:00,
2013-12-12 16:51:00,52.1,35.5,30.18,West,262,0.0,0.0,53,0.00,CLR,,0.00,WeatherDisplay:10.37,2013-12-13 00:51:00,
2013-12-12 16:56:00,51.3,35.7,30.18,West,262,0.0,0.0,55,0.00,CLR,,0.00,WeatherDisplay:10.37,2013-12-13 00:56:00,
2013-12-12 17:01:00,50.4,35.3,30.18,West,262,0.0,0.0,56,0.00,CLR,,0.00,WeatherDisplay:10.37,2013-12-13 01:01:00,
2013-12-12 17:06:00,49.7,35.1,30.18,West,262,0.0,0.0,57,0.00,CLR,,0.00,WeatherDisplay:10.37,2013-12-13 01:06:00,
2013-12-12 17:11:00,49.2,35.5,30.19,West,262,0.0,0.0,59,0.00,CLR,,0.00,WeatherDisplay:10.37,2013-12-13 01:11:00,
2013-12-12 17:16:00,48.6,35.3,30.19,West,262,0.0,0.0,60,0.00,CLR,,0.00,WeatherDisplay:10.37,2013-12-13 01:16:00,
2013-12-12 17:21:00,48.1,35.3,30.19,West,262,0.0,0.0,61,0.00,CLR,,0.00,WeatherDisplay:10.37,2013-12-13 01:21:00,
2013-12-12 17:26:00,47.7,35.3,30.19,West,262,0.0,0.0,62,0.00,CLR,,0.00,WeatherDisplay:10.37,2013-12-13 01:26:00,
2013-12-12 17:31:00,47.3,35.3,30.19,West,262,0.0,0.0,63,0.00,CLR,,0.00,WeatherDisplay:10.37,2013-12-13 01:31:00,
2013-12-12 17:36:00,47.2,35.2,30.19,West,262,0.0,0.0,63,0.00,CLR,,0.00,WeatherDisplay:10.37,2013-12-13 01:36:00,
2013-12-12 17:41:00,47.3,35.3,30.19,West,262,0.0,0.0,63,0.00,CLR,,0.00,WeatherDisplay:10.37,2013-12-13 01:41:00,
2013-12-12 17:46:00,47.5,35.1,30.19,West,262,0.0,0.0,62,0.00,CLR,,0.00,WeatherDisplay:10.37,2013-12-13 01:46:00,
2013-12-12 17:51:00,47.6,35.2,30.19,West,262,0.0,0.0,62,0.00,CLR,,0.00,WeatherDisplay:10.37,2013-12-13 01:51:00,
2013-12-12 17:56:00,47.3,35.3,30.19,West,262,0.0,0.0,63,0.00,CLR,,0.00,WeatherDisplay:10.37,2013-12-13 01:56:00,
2013-12-12 18:01:00,46.6,35.1,30.19,West,262,0.0,0.0,64,0.00,CLR,,0.00,WeatherDisplay:10.37,2013-12-13 02:01:00,
2013-12-12 18:06:00,46.0,34.9,30.19,West,262,0.0,0.0,65,0.00,CLR,,0.00,WeatherDisplay:10.37,2013-12-13 02:06:00,
2013-12-12 18:11:00,45.5,34.8,30.20,West,262,0.0,0.0,66,0.00,CLR,,0.00,WeatherDisplay:10.37,2013-12-13 02:11:00,
2013-12-12 18:16:00,45.0,34.7,30.20,West,262,0.0,0.0,67,0.00,CLR,,0.00,WeatherDisplay:10.37,2013-12-13 02:16:00,
2013-12-12 18:21:00,44.8,35.2,30.20,West,262,0.0,0.0,69,0.00,CLR,,0.00,WeatherDisplay:10.37,2013-12-13 02:21:00,
2013-12-12 18:26:00,44.6,35.1,30.21,West,262,0.0,0.0,69,0.00,CLR,,0.00,WeatherDisplay:10.37,2013-12-13 02:26:00,
2013-12-12 18:31:00,44.5,35.0,30.22,West,262,0.0,0.0,69,0.00,CLR,,0.00,WeatherDisplay:10.37,2013-12-13 02:31:00,
2013-12-12 18:36:00,44.7,35.5,30.22,NW,312,1.2,1.2,70,0.00,CLR,,0.00,WeatherDisplay:10.37,2013-12-13 02:36:00,
2013-12-12 18:41:00,44.9,35.7,30.23,North,349,0.0,0.0,70,0.00,CLR,,0.00,WeatherDisplay:10.37,2013-12-13 02:41:00,
2013-12-12 18:46:00,45.0,35.4,30.23,North,349,0.0,0.0,69,0.00,CLR,,0.00,WeatherDisplay:10.37,2013-12-13 02:46:00,
2013-12-12 18:51:00,44.9,35.3,30.23,North,349,0.0,0.0,69,0.00,CLR,,0.00,WeatherDisplay:10.37,2013-12-13 02:51:00,
2013-12-12 18:56:00,44.5,35.3,30.23,North,349,0.0,0.0,70,0.00,CLR,,0.00,WeatherDisplay:10.37,2013-12-13 02:56:00,
2013-12-12 19:01:00,44.0,35.2,30.23,NNW,348,0.0,0.0,71,0.00,CLR,,0.00,WeatherDisplay:10.37,2013-12-13 03:01:00,
2013-12-12 19:06:00,43.4,35.0,30.23,North,349,0.0,0.0,72,0.00,CLR,,0.00,WeatherDisplay:10.37,2013-12-13 03:06:00,
2013-12-12 19:11:00,42.8,34.4,30.23,North,349,0.0,0.0,72,0.00,CLR,,0.00,WeatherDisplay:10.37,2013-12-13 03:11:00,
2013-12-12 19:16:00,42.3,34.6,30.22,NNW,348,0.0,0.0,74,0.00,CLR,,0.00,WeatherDisplay:10.37,2013-12-13 03:16:00,
2013-12-12 19:21:00,41.9,34.6,30.22,North,349,0.0,0.0,75,0.00,CLR,,0.00,WeatherDisplay:10.37,2013-12-13 03:21:00,
2013-12-12 19:27:00,41.3,34.3,30.22,North,349,0.0,0.0,76,0.00,CLR,,0.00,WeatherDisplay:10.37,2013-12-13 03:27:00,
2013-12-12 19:32:00,41.0,34.3,30.22,North,349,0.0,0.0,77,0.00,CLR,,0.00,WeatherDisplay:10.37,2013-12-13 03:32:00,
2013-12-12 19:37:00,40.7,34.0,30.22,North,349,0.0,0.0,77,0.00,CLR,,0.00,WeatherDisplay:10.37,2013-12-13 03:37:00,
2013-12-12 19:42:00,40.4,33.8,30.22,North,349,0.0,0.0,77,0.00,CLR,,0.00,WeatherDisplay:10.37,2013-12-13 03:42:00,
2013-12-12 19:47:00,40.1,34.1,30.22,North,349,0.0,0.0,79,0.00,CLR,,0.00,WeatherDisplay:10.37,2013-12-13 03:47:00,
2013-12-12 19:52:00,39.9,34.2,30.22,NNW,348,0.0,0.0,80,0.00,CLR,,0.00,WeatherDisplay:10.37,2013-12-13 03:52:00,
2013-12-12 19:57:00,40.2,34.5,30.21,North,349,0.0,0.0,80,0.00,CLR,,0.00,WeatherDisplay:10.37,2013-12-13 03:57:00,
2013-12-12 20:03:00,40.6,34.6,30.21,NNW,348,0.0,0.0,79,0.00,CLR,,0.00,WeatherDisplay:10.37,2013-12-13 04:03:00,
2013-12-12 20:08:00,40.7,34.7,30.21,North,349,0.0,0.0,79,0.00,CLR,,0.00,WeatherDisplay:10.37,2013-12-13 04:08:00,
2013-12-12 20:13:00,40.9,34.6,30.22,North,349,0.0,0.0,78,0.00,CLR,,0.00,WeatherDisplay:10.37,2013-12-13 04:13:00,
2013-12-12 20:44:00,39.8,33.8,30.22,North,349,0.0,0.0,79,0.00,CLR,,0.00,WeatherDisplay:10.37,2013-12-13 04:44:00,
2013-12-12 20:49:00,39.4,33.4,30.22,North,349,0.0,0.0,79,0.00,CLR,,0.00,WeatherDisplay:10.37,2013-12-13 04:49:00,
2013-12-12 20:54:00,39.1,33.5,30.22,North,349,0.0,0.0,80,0.00,CLR,,0.00,WeatherDisplay:10.37,2013-12-13 04:54:00,
2013-12-12 20:59:00,38.9,33.9,30.22,North,349,0.0,0.0,82,0.00,CLR,,0.00,WeatherDisplay:10.37,2013-12-13 04:59:00,
2013-12-12 21:01:00,38.8,33.8,30.22,North,349,0.0,0.0,82,0.00,CLR,,0.00,WeatherDisplay:10.37,2013-12-13 05:01:00,
2013-12-12 21:02:00,38.8,33.5,30.22,North,349,0.0,0.0,81,0.00,CLR,,0.00,WeatherDisplay:10.37,2013-12-13 05:02:00,
2013-12-12 21:03:00,38.7,33.7,30.22,North,349,0.0,0.0,82,0.00,CLR,,0.00,WeatherDisplay:10.37,2013-12-13 05:03:00,
2013-12-12 21:08:00,38.6,33.6,30.22,North,349,0.0,0.0,82,0.00,CLR,,0.00,WeatherDisplay:10.37,2013-12-13 05:08:00,
2013-12-12 21:13:00,38.5,33.5,30.22,North,349,0.0,0.0,82,0.00,CLR,,0.00,WeatherDisplay:10.37,2013-12-13 05:13:00,
2013-12-12 21:18:00,38.3,33.3,30.22,North,349,0.0,0.0,82,0.00,CLR,,0.00,WeatherDisplay:10.37,2013-12-13 05:18:00,
2013-12-12 21:23:00,38.0,33.0,30.23,North,349,0.0,0.0,82,0.00,CLR,,0.00,WeatherDisplay:10.37,2013-12-13 05:23:00,
2013-12-12 21:28:00,37.8,33.1,30.23,North,349,0.0,0.0,83,0.00,CLR,,0.00,WeatherDisplay:10.37,2013-12-13 05:28:00,
2013-12-12 21:33:00,37.5,32.8,30.23,North,349,0.0,0.0,83,0.00,CLR,,0.00,WeatherDisplay:10.37,2013-12-13 05:33:00,
2013-12-12 21:38:00,37.3,32.9,30.23,NNW,348,0.0,0.0,84,0.00,CLR,,0.00,WeatherDisplay:10.37,2013-12-13 05:38:00,
2013-12-12 21:43:00,37.2,33.1,30.23,North,349,0.0,0.0,85,0.00,CLR,,0.00,WeatherDisplay:10.37,2013-12-13 05:43:00,
2013-12-12 21:48:00,37.1,33.0,30.23,North,349,0.0,0.0,85,0.00,CLR,,0.00,WeatherDisplay:10.37,2013-12-13 05:48:00,
2013-12-12 21:53:00,37.0,32.9,30.23,North,349,0.0,0.0,85,0.00,CLR,,0.00,WeatherDisplay:10.37,2013-12-13 05:53:00,
2013-12-12 21:58:00,36.9,32.8,30.23,North,349,0.0,0.0,85,0.00,CLR,,0.00,WeatherDisplay:10.37,2013-12-13 05:58:00,
2013-12-12 22:03:00,36.9,32.8,30.23,North,349,0.0,0.0,85,0.00,CLR,,0.00,WeatherDisplay:10.37,2013-12-13 06:03:00,
2013-12-12 22:08:00,37.0,33.2,30.23,North,349,0.0,0.0,86,0.00,CLR,,0.00,WeatherDisplay:10.37,2013-12-13 06:08:00,
2013-12-12 22:13:00,37.1,33.3,30.23,North,349,0.0,0.0,86,0.00,CLR,,0.00,WeatherDisplay:10.37,2013-12-13 06:13:00,
2013-12-12 22:18:00,37.1,33.3,30.23,North,349,0.0,0.0,86,0.00,CLR,,0.00,WeatherDisplay:10.37,2013-12-13 06:18:00,
2013-12-12 22:23:00,37.1,33.0,30.23,North,349,0.0,0.0,85,0.00,CLR,,0.00,WeatherDisplay:10.37,2013-12-13 06:23:00,
2013-12-12 22:28:00,36.8,32.7,30.24,NNW,348,0.0,0.0,85,0.00,CLR,,0.00,WeatherDisplay:10.37,2013-12-13 06:28:00,
2013-12-12 22:33:00,36.6,32.5,30.23,NNW,348,0.0,0.0,85,0.00,CLR,,0.00,WeatherDisplay:10.37,2013-12-13 06:33:00,
2013-12-12 22:38:00,36.3,31.9,30.23,North,349,0.0,0.0,84,0.00,CLR,,0.00,WeatherDisplay:10.37,2013-12-13 06:38:00,
2013-12-12 22:43:00,36.0,31.6,30.23,North,349,0.0,0.0,84,0.00,CLR,,0.00,WeatherDisplay:10.37,2013-12-13 06:43:00,
2013-12-12 22:48:00,35.9,32.1,30.23,North,349,0.0,0.0,86,0.00,CLR,,0.00,WeatherDisplay:10.37,2013-12-13 06:48:00,
2013-12-12 22:53:00,35.8,32.0,30.23,North,349,0.0,0.0,86,0.00,CLR,,0.00,WeatherDisplay:10.37,2013-12-13 06:53:00,
2013-12-12 22:58:00,35.7,31.9,30.24,North,349,0.0,0.0,86,0.00,CLR,,0.00,WeatherDisplay:10.37,2013-12-13 06:58:00,
2013-12-12 23:03:00,35.8,32.3,30.24,North,349,0.0,0.0,87,0.00,CLR,,0.00,WeatherDisplay:10.37,2013-12-13 07:03:00,
2013-12-12 23:08:00,36.1,32.6,30.24,North,349,0.0,0.0,87,0.00,CLR,,0.00,WeatherDisplay:10.37,2013-12-13 07:08:00,
2013-12-12 23:13:00,36.2,32.4,30.24,NNW,348,0.0,0.0,86,0.00,CLR,,0.00,WeatherDisplay:10.37,2013-12-13 07:13:00,
2013-12-12 23:18:00,36.2,32.4,30.24,NNW,348,0.0,0.0,86,0.00,CLR,,0.00,WeatherDisplay:10.37,2013-12-13 07:18:00,
2013-12-12 23:23:00,36.1,32.3,30.24,NNW,348,0.0,0.0,86,0.00,CLR,,0.00,WeatherDisplay:10.37,2013-12-13 07:23:00,
2013-12-12 23:28:00,36.2,32.4,30.24,North,349,0.0,0.0,86,0.00,CLR,,0.00,WeatherDisplay:10.37,2013-12-13 07:28:00,
2013-12-12 23:33:00,36.2,32.4,30.24,NNW,348,0.0,0.0,86,0.00,CLR,,0.00,WeatherDisplay:10.37,2013-12-13 07:33:00,
2013-12-12 23:38:00,36.2,32.4,30.24,North,349,0.0,0.0,86,0.00,CLR,,0.00,WeatherDisplay:10.37,2013-12-13 07:38:00,
2013-12-12 23:43:00,36.2,32.4,30.24,NNW,348,0.0,0.0,86,0.00,CLR,,0.00,WeatherDisplay:10.37,2013-12-13 07:43:00,
2013-12-12 23:48:00,35.9,31.8,30.23,North,349,0.0,0.0,85,0.00,CLR,,0.00,WeatherDisplay:10.37,2013-12-13 07:48:00,
2013-12-12 23:53:00,35.5,31.4,30.23,North,349,0.0,0.0,85,0.00,CLR,,0.00,WeatherDisplay:10.37,2013-12-13 07:53:00,
2013-12-12 23:58:00,35.1,31.3,30.23,North,349,0.0,0.0,86,0.00,CLR,,0.00,WeatherDisplay:10.37,2013-12-13 07:58:00,